sensor_id;sensor_type;location;lat;lon;timestamp;P1;durP1;ratioP1;P2;durP2;ratioP2
46391;SDS011;32098;49.448;7.904;2023-02-28T00:00:21;2.43;;;2.00;;
46391;SDS011;32098;49.448;7.904;2023-02-28T00:02:48;2.83;;;2.10;;
46391;SDS011;32098;49.448;7.904;2023-02-28T00:05:16;3.67;;;1.90;;
46391;SDS011;32098;49.448;7.904;2023-02-28T00:07:44;2.40;;;1.90;;
46391;SDS011;32098;49.448;7.904;2023-02-28T00:10:12;2.83;;;1.77;;
46391;SDS011;32098;49.448;7.904;2023-02-28T00:12:40;2.70;;;2.10;;
46391;SDS011;32098;49.448;7.904;2023-02-28T00:15:08;2.20;;;2.00;;
46391;SDS011;32098;49.448;7.904;2023-02-28T00:17:37;2.70;;;2.10;;
46391;SDS011;32098;49.448;7.904;2023-02-28T00:20:04;1.87;;;1.77;;
46391;SDS011;32098;49.448;7.904;2023-02-28T00:22:36;3.23;;;2.10;;
46391;SDS011;32098;49.448;7.904;2023-02-28T00:25:15;3.33;;;2.00;;
46391;SDS011;32098;49.448;7.904;2023-02-28T00:27:46;2.10;;;1.90;;
46391;SDS011;32098;49.448;7.904;2023-02-28T00:30:20;3.20;;;2.10;;
46391;SDS011;32098;49.448;7.904;2023-02-28T00:32:49;3.90;;;1.90;;
46391;SDS011;32098;49.448;7.904;2023-02-28T00:35:16;3.77;;;2.10;;
46391;SDS011;32098;49.448;7.904;2023-02-28T00:37:43;4.03;;;2.00;;
46391;SDS011;32098;49.448;7.904;2023-02-28T00:40:09;3.07;;;2.10;;
46391;SDS011;32098;49.448;7.904;2023-02-28T00:42:37;2.20;;;2.00;;
46391;SDS011;32098;49.448;7.904;2023-02-28T00:45:06;4.03;;;2.03;;
46391;SDS011;32098;49.448;7.904;2023-02-28T00:47:36;2.20;;;2.00;;
46391;SDS011;32098;49.448;7.904;2023-02-28T00:50:03;3.80;;;2.33;;
46391;SDS011;32098;49.448;7.904;2023-02-28T00:52:30;3.33;;;2.53;;
46391;SDS011;32098;49.448;7.904;2023-02-28T00:54:57;2.67;;;2.20;;
46391;SDS011;32098;49.448;7.904;2023-02-28T00:57:24;3.07;;;2.37;;
46391;SDS011;32098;49.448;7.904;2023-02-28T00:59:50;2.30;;;2.10;;
46391;SDS011;32098;49.448;7.904;2023-02-28T01:02:17;3.23;;;2.33;;
46391;SDS011;32098;49.448;7.904;2023-02-28T01:04:46;3.80;;;2.40;;
46391;SDS011;32098;49.448;7.904;2023-02-28T01:07:12;4.13;;;2.60;;
46391;SDS011;32098;49.448;7.904;2023-02-28T01:09:41;3.93;;;2.30;;
46391;SDS011;32098;49.448;7.904;2023-02-28T01:12:08;3.30;;;2.63;;
46391;SDS011;32098;49.448;7.904;2023-02-28T01:14:35;3.73;;;2.50;;
46391;SDS011;32098;49.448;7.904;2023-02-28T01:17:01;4.03;;;2.60;;
46391;SDS011;32098;49.448;7.904;2023-02-28T01:19:30;3.63;;;2.50;;
46391;SDS011;32098;49.448;7.904;2023-02-28T01:21:56;5.47;;;3.00;;
46391;SDS011;32098;49.448;7.904;2023-02-28T01:24:23;3.67;;;2.50;;
46391;SDS011;32098;49.448;7.904;2023-02-28T01:26:49;4.00;;;2.37;;
46391;SDS011;32098;49.448;7.904;2023-02-28T01:29:16;3.07;;;2.33;;
46391;SDS011;32098;49.448;7.904;2023-02-28T01:31:42;4.87;;;2.80;;
46391;SDS011;32098;49.448;7.904;2023-02-28T01:34:09;4.07;;;2.70;;
46391;SDS011;32098;49.448;7.904;2023-02-28T01:36:35;2.90;;;2.40;;
46391;SDS011;32098;49.448;7.904;2023-02-28T01:39:02;3.80;;;2.67;;
46391;SDS011;32098;49.448;7.904;2023-02-28T01:41:30;3.63;;;2.83;;
46391;SDS011;32098;49.448;7.904;2023-02-28T01:44:01;4.73;;;2.60;;
46391;SDS011;32098;49.448;7.904;2023-02-28T01:46:32;4.47;;;2.80;;
46391;SDS011;32098;49.448;7.904;2023-02-28T01:49:11;3.20;;;2.90;;
46391;SDS011;32098;49.448;7.904;2023-02-28T01:51:44;3.50;;;2.90;;
46391;SDS011;32098;49.448;7.904;2023-02-28T01:54:26;3.73;;;2.77;;
46391;SDS011;32098;49.448;7.904;2023-02-28T01:56:57;3.97;;;2.83;;
46391;SDS011;32098;49.448;7.904;2023-02-28T01:59:35;2.97;;;2.70;;
46391;SDS011;32098;49.448;7.904;2023-02-28T02:02:15;3.97;;;3.07;;
46391;SDS011;32098;49.448;7.904;2023-02-28T02:04:53;3.40;;;3.10;;
46391;SDS011;32098;49.448;7.904;2023-02-28T02:07:24;4.07;;;3.47;;
46391;SDS011;32098;49.448;7.904;2023-02-28T02:10:03;4.17;;;3.17;;
46391;SDS011;32098;49.448;7.904;2023-02-28T02:15:40;5.07;;;3.20;;
46391;SDS011;32098;49.448;7.904;2023-02-28T02:30:33;5.13;;;3.30;;
46391;SDS011;32098;49.448;7.904;2023-02-28T02:36:09;4.83;;;3.27;;
46391;SDS011;32098;49.448;7.904;2023-02-28T02:38:57;6.83;;;3.40;;
46391;SDS011;32098;49.448;7.904;2023-02-28T02:41:46;5.83;;;3.70;;
46391;SDS011;32098;49.448;7.904;2023-02-28T02:47:16;4.83;;;3.33;;
46391;SDS011;32098;49.448;7.904;2023-02-28T02:49:47;4.10;;;3.13;;
46391;SDS011;32098;49.448;7.904;2023-02-28T02:52:18;4.93;;;3.53;;
46391;SDS011;32098;49.448;7.904;2023-02-28T02:54:48;5.27;;;3.10;;
46391;SDS011;32098;49.448;7.904;2023-02-28T02:57:33;4.70;;;3.37;;
46391;SDS011;32098;49.448;7.904;2023-02-28T03:00:03;4.43;;;3.33;;
46391;SDS011;32098;49.448;7.904;2023-02-28T03:02:35;3.87;;;3.03;;
46391;SDS011;32098;49.448;7.904;2023-02-28T03:07:54;4.67;;;3.30;;
46391;SDS011;32098;49.448;7.904;2023-02-28T03:13:00;5.03;;;3.30;;
46391;SDS011;32098;49.448;7.904;2023-02-28T03:15:45;5.23;;;3.30;;
46391;SDS011;32098;49.448;7.904;2023-02-28T03:27:34;5.43;;;2.90;;
46391;SDS011;32098;49.448;7.904;2023-02-28T03:30:19;4.90;;;3.57;;
46391;SDS011;32098;49.448;7.904;2023-02-28T03:32:56;3.40;;;3.10;;
46391;SDS011;32098;49.448;7.904;2023-02-28T03:35:30;3.97;;;2.77;;
46391;SDS011;32098;49.448;7.904;2023-02-28T03:38:03;5.47;;;3.50;;
46391;SDS011;32098;49.448;7.904;2023-02-28T03:40:47;4.47;;;3.00;;
46391;SDS011;32098;49.448;7.904;2023-02-28T03:43:19;8.43;;;3.67;;
46391;SDS011;32098;49.448;7.904;2023-02-28T03:45:50;5.17;;;3.50;;
46391;SDS011;32098;49.448;7.904;2023-02-28T03:48:20;4.57;;;3.13;;
46391;SDS011;32098;49.448;7.904;2023-02-28T03:51:18;4.33;;;2.90;;
46391;SDS011;32098;49.448;7.904;2023-02-28T03:53:49;5.13;;;3.50;;
46391;SDS011;32098;49.448;7.904;2023-02-28T03:56:25;4.27;;;3.17;;
46391;SDS011;32098;49.448;7.904;2023-02-28T03:58:59;3.77;;;3.13;;
46391;SDS011;32098;49.448;7.904;2023-02-28T04:04:04;4.53;;;3.57;;
46391;SDS011;32098;49.448;7.904;2023-02-28T04:06:32;5.73;;;3.80;;
46391;SDS011;32098;49.448;7.904;2023-02-28T04:09:00;5.80;;;3.40;;
46391;SDS011;32098;49.448;7.904;2023-02-28T04:14:02;4.70;;;3.63;;
46391;SDS011;32098;49.448;7.904;2023-02-28T04:16:30;4.67;;;3.00;;
46391;SDS011;32098;49.448;7.904;2023-02-28T04:19:01;5.67;;;3.23;;
46391;SDS011;32098;49.448;7.904;2023-02-28T04:21:32;6.83;;;3.27;;
46391;SDS011;32098;49.448;7.904;2023-02-28T04:24:01;4.17;;;3.10;;
46391;SDS011;32098;49.448;7.904;2023-02-28T04:26:32;6.10;;;3.80;;
46391;SDS011;32098;49.448;7.904;2023-02-28T04:29:00;4.60;;;3.60;;
46391;SDS011;32098;49.448;7.904;2023-02-28T04:31:27;5.43;;;3.90;;
46391;SDS011;32098;49.448;7.904;2023-02-28T04:33:55;4.83;;;3.80;;
46391;SDS011;32098;49.448;7.904;2023-02-28T04:36:21;4.33;;;3.43;;
46391;SDS011;32098;49.448;7.904;2023-02-28T04:38:49;6.33;;;3.87;;
46391;SDS011;32098;49.448;7.904;2023-02-28T04:41:16;5.30;;;3.20;;
46391;SDS011;32098;49.448;7.904;2023-02-28T04:43:43;5.27;;;3.90;;
46391;SDS011;32098;49.448;7.904;2023-02-28T04:46:09;7.20;;;4.10;;
46391;SDS011;32098;49.448;7.904;2023-02-28T04:48:38;5.97;;;4.20;;
46391;SDS011;32098;49.448;7.904;2023-02-28T04:51:09;6.07;;;3.77;;
46391;SDS011;32098;49.448;7.904;2023-02-28T04:53:37;6.63;;;4.53;;
46391;SDS011;32098;49.448;7.904;2023-02-28T04:56:05;5.67;;;3.97;;
46391;SDS011;32098;49.448;7.904;2023-02-28T04:58:33;6.33;;;4.30;;
46391;SDS011;32098;49.448;7.904;2023-02-28T05:04:04;6.13;;;3.57;;
46391;SDS011;32098;49.448;7.904;2023-02-28T05:06:32;5.17;;;3.80;;
46391;SDS011;32098;49.448;7.904;2023-02-28T05:08:59;7.13;;;4.47;;
46391;SDS011;32098;49.448;7.904;2023-02-28T05:11:27;5.73;;;3.97;;
46391;SDS011;32098;49.448;7.904;2023-02-28T05:14:02;5.67;;;4.40;;
46391;SDS011;32098;49.448;7.904;2023-02-28T05:16:31;5.83;;;4.13;;
46391;SDS011;32098;49.448;7.904;2023-02-28T05:18:58;5.77;;;4.53;;
46391;SDS011;32098;49.448;7.904;2023-02-28T05:23:57;7.10;;;4.67;;
46391;SDS011;32098;49.448;7.904;2023-02-28T05:26:26;7.13;;;4.70;;
46391;SDS011;32098;49.448;7.904;2023-02-28T05:28:53;5.17;;;4.40;;
46391;SDS011;32098;49.448;7.904;2023-02-28T05:31:21;6.83;;;4.47;;
46391;SDS011;32098;49.448;7.904;2023-02-28T05:33:47;5.53;;;4.10;;
46391;SDS011;32098;49.448;7.904;2023-02-28T05:36:14;5.73;;;4.50;;
46391;SDS011;32098;49.448;7.904;2023-02-28T05:38:40;5.80;;;4.37;;
46391;SDS011;32098;49.448;7.904;2023-02-28T05:41:08;6.03;;;4.20;;
46391;SDS011;32098;49.448;7.904;2023-02-28T05:43:35;5.67;;;4.10;;
46391;SDS011;32098;49.448;7.904;2023-02-28T05:46:06;5.70;;;4.23;;
46391;SDS011;32098;49.448;7.904;2023-02-28T05:48:35;7.77;;;4.60;;
46391;SDS011;32098;49.448;7.904;2023-02-28T05:51:03;6.60;;;4.80;;
46391;SDS011;32098;49.448;7.904;2023-02-28T05:53:31;6.80;;;4.90;;
46391;SDS011;32098;49.448;7.904;2023-02-28T05:55:57;7.17;;;4.90;;
46391;SDS011;32098;49.448;7.904;2023-02-28T05:58:24;7.23;;;5.40;;
46391;SDS011;32098;49.448;7.904;2023-02-28T06:00:55;6.13;;;4.67;;
46391;SDS011;32098;49.448;7.904;2023-02-28T06:03:21;8.20;;;4.57;;
46391;SDS011;32098;49.448;7.904;2023-02-28T06:05:48;6.90;;;5.47;;
46391;SDS011;32098;49.448;7.904;2023-02-28T06:08:14;8.53;;;6.17;;
46391;SDS011;32098;49.448;7.904;2023-02-28T06:10:41;8.70;;;5.13;;
46391;SDS011;32098;49.448;7.904;2023-02-28T06:13:07;7.90;;;5.53;;
46391;SDS011;32098;49.448;7.904;2023-02-28T06:15:34;6.43;;;4.70;;
46391;SDS011;32098;49.448;7.904;2023-02-28T06:18:01;6.23;;;4.60;;
46391;SDS011;32098;49.448;7.904;2023-02-28T06:20:27;8.80;;;4.90;;
46391;SDS011;32098;49.448;7.904;2023-02-28T06:22:56;6.83;;;4.63;;
46391;SDS011;32098;49.448;7.904;2023-02-28T06:25:27;6.53;;;4.73;;
46391;SDS011;32098;49.448;7.904;2023-02-28T06:27:54;7.60;;;5.53;;
46391;SDS011;32098;49.448;7.904;2023-02-28T06:30:21;9.10;;;5.97;;
46391;SDS011;32098;49.448;7.904;2023-02-28T06:32:53;6.40;;;4.80;;
46391;SDS011;32098;49.448;7.904;2023-02-28T06:35:20;9.10;;;5.57;;
46391;SDS011;32098;49.448;7.904;2023-02-28T06:37:48;8.63;;;6.10;;
46391;SDS011;32098;49.448;7.904;2023-02-28T06:40:14;6.87;;;5.27;;
46391;SDS011;32098;49.448;7.904;2023-02-28T06:42:41;8.73;;;5.40;;
46391;SDS011;32098;49.448;7.904;2023-02-28T06:45:09;8.57;;;5.60;;
46391;SDS011;32098;49.448;7.904;2023-02-28T06:47:37;7.00;;;5.30;;
46391;SDS011;32098;49.448;7.904;2023-02-28T06:50:05;8.83;;;5.77;;
46391;SDS011;32098;49.448;7.904;2023-02-28T06:52:34;9.03;;;5.40;;
46391;SDS011;32098;49.448;7.904;2023-02-28T06:55:04;7.13;;;5.07;;
46391;SDS011;32098;49.448;7.904;2023-02-28T06:57:32;8.03;;;5.27;;
46391;SDS011;32098;49.448;7.904;2023-02-28T07:00:00;8.37;;;4.97;;
46391;SDS011;32098;49.448;7.904;2023-02-28T07:02:34;7.47;;;5.47;;
46391;SDS011;32098;49.448;7.904;2023-02-28T07:05:01;8.80;;;5.67;;
46391;SDS011;32098;49.448;7.904;2023-02-28T07:07:28;8.80;;;5.40;;
46391;SDS011;32098;49.448;7.904;2023-02-28T07:09:54;8.17;;;5.37;;
46391;SDS011;32098;49.448;7.904;2023-02-28T07:12:21;8.33;;;5.33;;
46391;SDS011;32098;49.448;7.904;2023-02-28T07:14:48;8.80;;;4.90;;
46391;SDS011;32098;49.448;7.904;2023-02-28T07:17:14;6.93;;;4.90;;
46391;SDS011;32098;49.448;7.904;2023-02-28T07:19:41;7.60;;;5.20;;
46391;SDS011;32098;49.448;7.904;2023-02-28T07:22:08;7.57;;;5.17;;
46391;SDS011;32098;49.448;7.904;2023-02-28T07:24:34;6.53;;;4.20;;
46391;SDS011;32098;49.448;7.904;2023-02-28T07:27:01;6.07;;;4.60;;
46391;SDS011;32098;49.448;7.904;2023-02-28T07:29:28;5.70;;;4.30;;
46391;SDS011;32098;49.448;7.904;2023-02-28T07:31:55;6.00;;;4.53;;
46391;SDS011;32098;49.448;7.904;2023-02-28T07:34:22;8.13;;;5.10;;
46391;SDS011;32098;49.448;7.904;2023-02-28T07:36:48;6.23;;;4.63;;
46391;SDS011;32098;49.448;7.904;2023-02-28T07:39:19;7.83;;;4.97;;
46391;SDS011;32098;49.448;7.904;2023-02-28T07:41:47;6.90;;;4.70;;
46391;SDS011;32098;49.448;7.904;2023-02-28T07:44:14;6.53;;;4.90;;
46391;SDS011;32098;49.448;7.904;2023-02-28T07:46:40;7.03;;;5.27;;
46391;SDS011;32098;49.448;7.904;2023-02-28T07:49:07;6.80;;;4.77;;
46391;SDS011;32098;49.448;7.904;2023-02-28T07:51:33;6.87;;;4.27;;
46391;SDS011;32098;49.448;7.904;2023-02-28T07:54:00;7.53;;;4.67;;
46391;SDS011;32098;49.448;7.904;2023-02-28T07:56:27;6.10;;;3.90;;
46391;SDS011;32098;49.448;7.904;2023-02-28T07:58:54;6.73;;;4.37;;
46391;SDS011;32098;49.448;7.904;2023-02-28T08:01:21;6.97;;;4.83;;
46391;SDS011;32098;49.448;7.904;2023-02-28T08:03:48;6.43;;;4.83;;
46391;SDS011;32098;49.448;7.904;2023-02-28T08:06:19;11.37;;;5.33;;
46391;SDS011;32098;49.448;7.904;2023-02-28T08:08:47;6.70;;;4.90;;
46391;SDS011;32098;49.448;7.904;2023-02-28T08:11:15;6.20;;;4.20;;
46391;SDS011;32098;49.448;7.904;2023-02-28T08:13:42;6.53;;;4.70;;
46391;SDS011;32098;49.448;7.904;2023-02-28T08:16:10;6.30;;;4.57;;
46391;SDS011;32098;49.448;7.904;2023-02-28T08:18:41;5.47;;;4.37;;
46391;SDS011;32098;49.448;7.904;2023-02-28T08:21:08;7.70;;;3.90;;
46391;SDS011;32098;49.448;7.904;2023-02-28T08:23:36;6.23;;;4.57;;
46391;SDS011;32098;49.448;7.904;2023-02-28T08:26:03;6.27;;;4.47;;
46391;SDS011;32098;49.448;7.904;2023-02-28T08:28:30;5.47;;;4.47;;
46391;SDS011;32098;49.448;7.904;2023-02-28T08:30:57;8.40;;;5.60;;
46391;SDS011;32098;49.448;7.904;2023-02-28T08:33:24;8.20;;;4.73;;
46391;SDS011;32098;49.448;7.904;2023-02-28T08:35:54;6.67;;;4.30;;
46391;SDS011;32098;49.448;7.904;2023-02-28T08:38:21;8.20;;;5.13;;
46391;SDS011;32098;49.448;7.904;2023-02-28T08:40:48;5.80;;;4.57;;
46391;SDS011;32098;49.448;7.904;2023-02-28T08:43:15;8.40;;;4.80;;
46391;SDS011;32098;49.448;7.904;2023-02-28T08:45:42;6.93;;;4.40;;
46391;SDS011;32098;49.448;7.904;2023-02-28T08:48:09;5.57;;;4.40;;
46391;SDS011;32098;49.448;7.904;2023-02-28T08:50:36;7.03;;;4.97;;
46391;SDS011;32098;49.448;7.904;2023-02-28T08:53:02;5.77;;;4.80;;
46391;SDS011;32098;49.448;7.904;2023-02-28T08:55:30;6.37;;;4.63;;
46391;SDS011;32098;49.448;7.904;2023-02-28T08:57:56;6.63;;;4.53;;
46391;SDS011;32098;49.448;7.904;2023-02-28T09:00:23;7.43;;;4.93;;
46391;SDS011;32098;49.448;7.904;2023-02-28T09:02:50;8.13;;;5.03;;
46391;SDS011;32098;49.448;7.904;2023-02-28T09:05:17;6.77;;;5.10;;
46391;SDS011;32098;49.448;7.904;2023-02-28T09:07:44;6.60;;;4.70;;
46391;SDS011;32098;49.448;7.904;2023-02-28T09:10:11;7.23;;;4.67;;
46391;SDS011;32098;49.448;7.904;2023-02-28T09:12:37;6.23;;;4.83;;
46391;SDS011;32098;49.448;7.904;2023-02-28T09:15:04;5.63;;;4.60;;
46391;SDS011;32098;49.448;7.904;2023-02-28T09:17:31;6.00;;;4.57;;
46391;SDS011;32098;49.448;7.904;2023-02-28T09:19:58;7.03;;;4.73;;
46391;SDS011;32098;49.448;7.904;2023-02-28T09:22:24;7.10;;;4.93;;
46391;SDS011;32098;49.448;7.904;2023-02-28T09:24:51;7.77;;;5.33;;
46391;SDS011;32098;49.448;7.904;2023-02-28T09:27:17;6.43;;;4.50;;
46391;SDS011;32098;49.448;7.904;2023-02-28T09:29:44;8.13;;;5.40;;
46391;SDS011;32098;49.448;7.904;2023-02-28T09:32:10;6.97;;;5.43;;
46391;SDS011;32098;49.448;7.904;2023-02-28T09:34:37;5.43;;;4.13;;
46391;SDS011;32098;49.448;7.904;2023-02-28T09:37:04;7.47;;;5.07;;
46391;SDS011;32098;49.448;7.904;2023-02-28T09:39:30;7.97;;;5.10;;
46391;SDS011;32098;49.448;7.904;2023-02-28T09:41:58;6.43;;;5.53;;
46391;SDS011;32098;49.448;7.904;2023-02-28T09:46:57;12.70;;;5.10;;
46391;SDS011;32098;49.448;7.904;2023-02-28T09:49:31;7.90;;;5.13;;
46391;SDS011;32098;49.448;7.904;2023-02-28T09:52:48;8.27;;;5.77;;
46391;SDS011;32098;49.448;7.904;2023-02-28T09:54:59;8.63;;;5.37;;
46391;SDS011;32098;49.448;7.904;2023-02-28T09:57:42;7.87;;;5.30;;
46391;SDS011;32098;49.448;7.904;2023-02-28T10:00:19;6.00;;;4.90;;
46391;SDS011;32098;49.448;7.904;2023-02-28T10:11:24;8.07;;;5.53;;
46391;SDS011;32098;49.448;7.904;2023-02-28T10:13:57;7.93;;;5.40;;
46391;SDS011;32098;49.448;7.904;2023-02-28T10:16:29;7.50;;;5.33;;
46391;SDS011;32098;49.448;7.904;2023-02-28T10:19:06;7.77;;;5.63;;
46391;SDS011;32098;49.448;7.904;2023-02-28T10:21:59;9.77;;;6.17;;
46391;SDS011;32098;49.448;7.904;2023-02-28T10:24:40;8.67;;;5.80;;
46391;SDS011;32098;49.448;7.904;2023-02-28T10:27:16;8.23;;;5.60;;
46391;SDS011;32098;49.448;7.904;2023-02-28T10:29:56;10.50;;;5.70;;
46391;SDS011;32098;49.448;7.904;2023-02-28T10:32:35;8.53;;;5.60;;
46391;SDS011;32098;49.448;7.904;2023-02-28T10:35:10;11.43;;;6.20;;
46391;SDS011;32098;49.448;7.904;2023-02-28T10:37:44;8.83;;;5.67;;
46391;SDS011;32098;49.448;7.904;2023-02-28T10:43:02;7.20;;;5.23;;
46391;SDS011;32098;49.448;7.904;2023-02-28T10:45:30;9.03;;;5.80;;
46391;SDS011;32098;49.448;7.904;2023-02-28T10:47:59;9.20;;;6.13;;
46391;SDS011;32098;49.448;7.904;2023-02-28T10:50:43;8.37;;;5.50;;
46391;SDS011;32098;49.448;7.904;2023-02-28T10:58:50;7.23;;;5.90;;
46391;SDS011;32098;49.448;7.904;2023-02-28T11:03:57;9.03;;;6.30;;
46391;SDS011;32098;49.448;7.904;2023-02-28T11:06:26;10.10;;;6.47;;
46391;SDS011;32098;49.448;7.904;2023-02-28T11:08:59;8.07;;;6.33;;
46391;SDS011;32098;49.448;7.904;2023-02-28T11:11:30;9.10;;;6.13;;
46391;SDS011;32098;49.448;7.904;2023-02-28T11:14:22;10.37;;;6.77;;
46391;SDS011;32098;49.448;7.904;2023-02-28T11:16:53;10.47;;;6.70;;
46391;SDS011;32098;49.448;7.904;2023-02-28T11:19:26;9.63;;;6.70;;
46391;SDS011;32098;49.448;7.904;2023-02-28T11:22:03;8.37;;;6.33;;
46391;SDS011;32098;49.448;7.904;2023-02-28T11:24:33;9.07;;;6.27;;
46391;SDS011;32098;49.448;7.904;2023-02-28T11:27:03;13.67;;;6.73;;
46391;SDS011;32098;49.448;7.904;2023-02-28T11:29:30;8.17;;;5.80;;
46391;SDS011;32098;49.448;7.904;2023-02-28T11:32:03;9.07;;;6.73;;
46391;SDS011;32098;49.448;7.904;2023-02-28T11:34:46;9.10;;;5.80;;
46391;SDS011;32098;49.448;7.904;2023-02-28T11:37:25;9.90;;;6.60;;
46391;SDS011;32098;49.448;7.904;2023-02-28T11:39:54;9.00;;;6.50;;
46391;SDS011;32098;49.448;7.904;2023-02-28T11:45:28;7.67;;;5.97;;
46391;SDS011;32098;49.448;7.904;2023-02-28T11:48:16;11.27;;;6.30;;
46391;SDS011;32098;49.448;7.904;2023-02-28T11:58:45;8.80;;;6.47;;
46391;SDS011;32098;49.448;7.904;2023-02-28T12:07:13;8.83;;;6.00;;
46391;SDS011;32098;49.448;7.904;2023-02-28T12:10:22;8.90;;;6.50;;
46391;SDS011;32098;49.448;7.904;2023-02-28T12:12:56;9.17;;;6.20;;
46391;SDS011;32098;49.448;7.904;2023-02-28T12:18:59;8.20;;;6.17;;
46391;SDS011;32098;49.448;7.904;2023-02-28T12:21:36;9.40;;;6.33;;
46391;SDS011;32098;49.448;7.904;2023-02-28T12:26:56;9.13;;;6.40;;
46391;SDS011;32098;49.448;7.904;2023-02-28T12:29:32;8.77;;;6.33;;
46391;SDS011;32098;49.448;7.904;2023-02-28T12:32:13;9.27;;;6.40;;
46391;SDS011;32098;49.448;7.904;2023-02-28T12:34:49;9.57;;;6.37;;
46391;SDS011;32098;49.448;7.904;2023-02-28T12:37:28;8.50;;;6.17;;
46391;SDS011;32098;49.448;7.904;2023-02-28T12:40:05;8.57;;;6.80;;
46391;SDS011;32098;49.448;7.904;2023-02-28T12:42:45;8.57;;;6.13;;
46391;SDS011;32098;49.448;7.904;2023-02-28T12:45:19;8.63;;;6.43;;
46391;SDS011;32098;49.448;7.904;2023-02-28T12:48:08;11.43;;;7.30;;
46391;SDS011;32098;49.448;7.904;2023-02-28T12:50:40;11.67;;;7.43;;
46391;SDS011;32098;49.448;7.904;2023-02-28T12:53:13;9.73;;;7.43;;
46391;SDS011;32098;49.448;7.904;2023-02-28T12:56:07;9.30;;;7.03;;
46391;SDS011;32098;49.448;7.904;2023-02-28T12:58:50;10.83;;;7.00;;
46391;SDS011;32098;49.448;7.904;2023-02-28T13:04:03;9.83;;;7.10;;
46391;SDS011;32098;49.448;7.904;2023-02-28T13:09:26;11.60;;;7.00;;
46391;SDS011;32098;49.448;7.904;2023-02-28T13:11:55;8.60;;;6.37;;
46391;SDS011;32098;49.448;7.904;2023-02-28T13:14:25;8.80;;;6.60;;
46391;SDS011;32098;49.448;7.904;2023-02-28T13:19:45;11.40;;;6.40;;
46391;SDS011;32098;49.448;7.904;2023-02-28T13:28:00;9.23;;;6.90;;
46391;SDS011;32098;49.448;7.904;2023-02-28T13:33:25;10.43;;;7.37;;
46391;SDS011;32098;49.448;7.904;2023-02-28T13:38:37;9.30;;;6.60;;
46391;SDS011;32098;49.448;7.904;2023-02-28T13:43:59;10.53;;;7.53;;
46391;SDS011;32098;49.448;7.904;2023-02-28T13:49:28;10.67;;;6.67;;
46391;SDS011;32098;49.448;7.904;2023-02-28T13:52:10;13.00;;;7.60;;
46391;SDS011;32098;49.448;7.904;2023-02-28T13:54:48;11.43;;;6.87;;
46391;SDS011;32098;49.448;7.904;2023-02-28T13:57:57;11.07;;;6.90;;
46391;SDS011;32098;49.448;7.904;2023-02-28T14:03:42;9.07;;;7.30;;
46391;SDS011;32098;49.448;7.904;2023-02-28T14:08:57;9.83;;;7.13;;
46391;SDS011;32098;49.448;7.904;2023-02-28T14:11:45;9.43;;;6.93;;
46391;SDS011;32098;49.448;7.904;2023-02-28T14:14:53;10.63;;;7.60;;
46391;SDS011;32098;49.448;7.904;2023-02-28T14:17:15;9.53;;;7.07;;
46391;SDS011;32098;49.448;7.904;2023-02-28T14:19:44;10.00;;;7.03;;
46391;SDS011;32098;49.448;7.904;2023-02-28T14:22:25;10.17;;;6.90;;
46391;SDS011;32098;49.448;7.904;2023-02-28T14:25:22;11.53;;;7.43;;
46391;SDS011;32098;49.448;7.904;2023-02-28T14:34:04;11.00;;;7.33;;
46391;SDS011;32098;49.448;7.904;2023-02-28T14:36:43;9.30;;;6.97;;
46391;SDS011;32098;49.448;7.904;2023-02-28T14:39:14;12.97;;;7.90;;
46391;SDS011;32098;49.448;7.904;2023-02-28T14:41:45;9.27;;;6.90;;
46391;SDS011;32098;49.448;7.904;2023-02-28T14:44:17;9.23;;;6.93;;
46391;SDS011;32098;49.448;7.904;2023-02-28T14:46:48;9.63;;;6.80;;
46391;SDS011;32098;49.448;7.904;2023-02-28T14:51:49;10.27;;;7.13;;
46391;SDS011;32098;49.448;7.904;2023-02-28T14:54:27;10.00;;;7.30;;
46391;SDS011;32098;49.448;7.904;2023-02-28T14:56:54;12.33;;;6.57;;
46391;SDS011;32098;49.448;7.904;2023-02-28T14:59:28;10.80;;;6.73;;
46391;SDS011;32098;49.448;7.904;2023-02-28T15:02:20;11.00;;;7.60;;
46391;SDS011;32098;49.448;7.904;2023-02-28T15:04:55;11.23;;;7.27;;
46391;SDS011;32098;49.448;7.904;2023-02-28T15:07:23;8.17;;;6.40;;
46391;SDS011;32098;49.448;7.904;2023-02-28T15:12:35;12.23;;;7.53;;
46391;SDS011;32098;49.448;7.904;2023-02-28T15:15:03;10.93;;;7.53;;
46391;SDS011;32098;49.448;7.904;2023-02-28T15:17:29;9.77;;;7.03;;
46391;SDS011;32098;49.448;7.904;2023-02-28T15:19:56;10.07;;;6.70;;
46391;SDS011;32098;49.448;7.904;2023-02-28T15:22:28;12.00;;;7.53;;
46391;SDS011;32098;49.448;7.904;2023-02-28T15:25:02;8.97;;;6.67;;
46391;SDS011;32098;49.448;7.904;2023-02-28T15:27:32;11.37;;;7.87;;
46391;SDS011;32098;49.448;7.904;2023-02-28T15:30:00;10.97;;;7.43;;
46391;SDS011;32098;49.448;7.904;2023-02-28T15:32:36;9.17;;;7.07;;
46391;SDS011;32098;49.448;7.904;2023-02-28T15:35:24;11.10;;;7.53;;
46391;SDS011;32098;49.448;7.904;2023-02-28T15:38:03;7.93;;;6.33;;
46391;SDS011;32098;49.448;7.904;2023-02-28T15:40:41;10.87;;;7.80;;
46391;SDS011;32098;49.448;7.904;2023-02-28T15:43:14;10.77;;;7.50;;
46391;SDS011;32098;49.448;7.904;2023-02-28T15:45:46;12.53;;;7.30;;
46391;SDS011;32098;49.448;7.904;2023-02-28T15:50:43;11.13;;;7.77;;
46391;SDS011;32098;49.448;7.904;2023-02-28T15:53:13;8.77;;;7.23;;
46391;SDS011;32098;49.448;7.904;2023-02-28T15:55:43;8.50;;;6.50;;
46391;SDS011;32098;49.448;7.904;2023-02-28T15:58:11;11.67;;;7.30;;
46391;SDS011;32098;49.448;7.904;2023-02-28T16:00:39;11.87;;;7.67;;
46391;SDS011;32098;49.448;7.904;2023-02-28T16:03:27;10.37;;;7.10;;
46391;SDS011;32098;49.448;7.904;2023-02-28T16:08:43;10.27;;;6.93;;
46391;SDS011;32098;49.448;7.904;2023-02-28T16:11:12;9.57;;;7.23;;
46391;SDS011;32098;49.448;7.904;2023-02-28T16:13:38;9.90;;;6.87;;
46391;SDS011;32098;49.448;7.904;2023-02-28T16:16:04;10.70;;;7.07;;
46391;SDS011;32098;49.448;7.904;2023-02-28T16:18:31;12.97;;;7.30;;
46391;SDS011;32098;49.448;7.904;2023-02-28T16:20:58;11.23;;;7.47;;
46391;SDS011;32098;49.448;7.904;2023-02-28T16:23:24;10.60;;;6.63;;
46391;SDS011;32098;49.448;7.904;2023-02-28T16:25:51;12.00;;;7.17;;
46391;SDS011;32098;49.448;7.904;2023-02-28T16:28:23;9.87;;;7.10;;
46391;SDS011;32098;49.448;7.904;2023-02-28T16:30:53;9.67;;;7.20;;
46391;SDS011;32098;49.448;7.904;2023-02-28T16:33:19;9.77;;;7.33;;
46391;SDS011;32098;49.448;7.904;2023-02-28T16:35:46;9.50;;;6.67;;
46391;SDS011;32098;49.448;7.904;2023-02-28T16:38:12;9.90;;;6.97;;
46391;SDS011;32098;49.448;7.904;2023-02-28T16:40:39;9.80;;;6.70;;
46391;SDS011;32098;49.448;7.904;2023-02-28T16:43:11;10.80;;;7.50;;
46391;SDS011;32098;49.448;7.904;2023-02-28T16:45:45;10.43;;;6.67;;
46391;SDS011;32098;49.448;7.904;2023-02-28T16:48:14;10.03;;;7.30;;
46391;SDS011;32098;49.448;7.904;2023-02-28T16:50:42;9.43;;;6.83;;
46391;SDS011;32098;49.448;7.904;2023-02-28T16:53:10;8.83;;;6.93;;
46391;SDS011;32098;49.448;7.904;2023-02-28T16:55:37;10.10;;;6.93;;
46391;SDS011;32098;49.448;7.904;2023-02-28T16:58:03;11.17;;;7.20;;
46391;SDS011;32098;49.448;7.904;2023-02-28T17:00:31;11.30;;;7.40;;
46391;SDS011;32098;49.448;7.904;2023-02-28T17:02:58;9.50;;;6.73;;
46391;SDS011;32098;49.448;7.904;2023-02-28T17:05:25;11.20;;;7.53;;
46391;SDS011;32098;49.448;7.904;2023-02-28T17:08:04;12.03;;;7.37;;
46391;SDS011;32098;49.448;7.904;2023-02-28T17:10:30;11.93;;;7.40;;
46391;SDS011;32098;49.448;7.904;2023-02-28T17:12:56;9.93;;;6.90;;
46391;SDS011;32098;49.448;7.904;2023-02-28T17:15:34;11.53;;;7.47;;
46391;SDS011;32098;49.448;7.904;2023-02-28T17:18:03;10.80;;;7.70;;
46391;SDS011;32098;49.448;7.904;2023-02-28T17:20:31;12.10;;;7.50;;
46391;SDS011;32098;49.448;7.904;2023-02-28T17:22:58;12.07;;;7.20;;
46391;SDS011;32098;49.448;7.904;2023-02-28T17:25:24;10.60;;;6.97;;
46391;SDS011;32098;49.448;7.904;2023-02-28T17:27:52;8.93;;;6.50;;